sensor_id;sensor_type;location;lat;lon;timestamp;pressure;altitude;pressure_sealevel;temperature;humidity
69027;BME280;56080;47.594;19.116;2023-03-26T00:02:53;99724;;;10.13;61.70
69027;BME280;56080;47.594;19.116;2023-03-26T00:12:53;99715;;;10.05;61.67
69027;BME280;56080;47.594;19.116;2023-03-26T00:22:54;99718;;;9.94;61.82
69027;BME280;56080;47.594;19.116;2023-03-26T00:42:55;99724;;;9.68;62.46
69027;BME280;56080;47.594;19.116;2023-03-26T00:52:57;99716;;;9.42;63.50
69027;BME280;56080;47.594;19.116;2023-03-26T01:02:57;99708;;;9.40;63.92
69027;BME280;56080;47.594;19.116;2023-03-26T01:12:57;99687;;;9.19;64.57
69027;BME280;56080;47.594;19.116;2023-03-26T01:22:59;99693;;;9.25;64.08
69027;BME280;56080;47.594;19.116;2023-03-26T01:33:09;99688;;;9.25;64.30
69027;BME280;56080;47.594;19.116;2023-03-26T01:53:00;99698;;;9.51;63.30
69027;BME280;56080;47.594;19.116;2023-03-26T02:13:02;99718;;;9.48;63.47
69027;BME280;56080;47.594;19.116;2023-03-26T02:23:03;99725;;;9.39;63.89
69027;BME280;56080;47.594;19.116;2023-03-26T02:33:03;99715;;;9.54;63.04
69027;BME280;56080;47.594;19.116;2023-03-26T02:43:04;99711;;;9.57;62.86
69027;BME280;56080;47.594;19.116;2023-03-26T02:53:05;99705;;;9.25;63.67
69027;BME280;56080;47.594;19.116;2023-03-26T03:03:06;99692;;;8.82;65.07
69027;BME280;56080;47.594;19.116;2023-03-26T03:13:06;99701;;;8.78;65.53
69027;BME280;56080;47.594;19.116;2023-03-26T03:23:07;99701;;;8.61;66.08
69027;BME280;56080;47.594;19.116;2023-03-26T03:33:08;99706;;;8.55;66.44
69027;BME280;56080;47.594;19.116;2023-03-26T03:43:09;99698;;;8.51;66.76
69027;BME280;56080;47.594;19.116;2023-03-26T03:50:15;99699;;;8.51;66.88
69027;BME280;56080;47.594;19.116;2023-03-26T03:53:09;99710;;;8.51;66.96
69027;BME280;56080;47.594;19.116;2023-03-26T04:03:13;99703;;;8.48;67.05
69027;BME280;56080;47.594;19.116;2023-03-26T04:13:11;99714;;;8.52;67.44
69027;BME280;56080;47.594;19.116;2023-03-26T04:23:13;99723;;;8.71;66.55
69027;BME280;56080;47.594;19.116;2023-03-26T04:33:14;99714;;;8.73;66.14
69027;BME280;56080;47.594;19.116;2023-03-26T04:53:14;99718;;;8.42;67.50
69027;BME280;56080;47.594;19.116;2023-03-26T05:03:14;99717;;;8.33;67.68
69027;BME280;56080;47.594;19.116;2023-03-26T05:13:14;99715;;;8.69;67.15
69027;BME280;56080;47.594;19.116;2023-03-26T05:23:15;99715;;;8.85;67.22
69027;BME280;56080;47.594;19.116;2023-03-26T05:33:16;99708;;;8.98;67.01
69027;BME280;56080;47.594;19.116;2023-03-26T05:43:16;99706;;;9.44;65.75
69027;BME280;56080;47.594;19.116;2023-03-26T06:03:18;99710;;;9.89;61.62
69027;BME280;56080;47.594;19.116;2023-03-26T06:13:18;99706;;;10.22;60.96
69027;BME280;56080;47.594;19.116;2023-03-26T06:23:19;99703;;;10.42;59.96
69027;BME280;56080;47.594;19.116;2023-03-26T06:33:23;99705;;;10.68;58.91
69027;BME280;56080;47.594;19.116;2023-03-26T06:43:21;99696;;;11.37;56.47
69027;BME280;56080;47.594;19.116;2023-03-26T06:53:22;99697;;;11.85;54.59
69027;BME280;56080;47.594;19.116;2023-03-26T07:03:23;99698;;;11.92;53.94
69027;BME280;56080;47.594;19.116;2023-03-26T07:13:24;99688;;;11.93;53.50
69027;BME280;56080;47.594;19.116;2023-03-26T07:23:25;99692;;;12.12;52.73
69027;BME280;56080;47.594;19.116;2023-03-26T07:53:28;99691;;;12.95;49.84
69027;BME280;56080;47.594;19.116;2023-03-26T08:13:42;99684;;;13.70;45.79
69027;BME280;56080;47.594;19.116;2023-03-26T08:23:36;99686;;;13.45;46.10
69027;BME280;56080;47.594;19.116;2023-03-26T08:33:33;99693;;;13.22;46.78
69027;BME280;56080;47.594;19.116;2023-03-26T08:53:39;99691;;;13.54;46.74
69027;BME280;56080;47.594;19.116;2023-03-26T09:03:38;99670;;;14.59;44.92
69027;BME280;56080;47.594;19.116;2023-03-26T09:23:58;99661;;;14.31;44.98
69027;BME280;56080;47.594;19.116;2023-03-26T10:03:53;99625;;;16.16;41.75
69027;BME280;56080;47.594;19.116;2023-03-26T10:33:50;99566;;;15.51;42.20
69027;BME280;56080;47.594;19.116;2023-03-26T11:03:51;99546;;;15.63;41.40
69027;BME280;56080;47.594;19.116;2023-03-26T11:13:56;99519;;;15.37;43.72
69027;BME280;56080;47.594;19.116;2023-03-26T11:33:56;99474;;;15.82;42.17
69027;BME280;56080;47.594;19.116;2023-03-26T11:53:57;99431;;;15.93;41.58
69027;BME280;56080;47.594;19.116;2023-03-26T12:04:02;99416;;;15.98;41.90
69027;BME280;56080;47.594;19.116;2023-03-26T12:14:00;99383;;;16.14;42.27
69027;BME280;56080;47.594;19.116;2023-03-26T12:24:01;99375;;;16.09;40.89
69027;BME280;56080;47.594;19.116;2023-03-26T12:44:19;99323;;;16.18;39.60
69027;BME280;56080;47.594;19.116;2023-03-26T13:24:11;99249;;;16.82;33.04
69027;BME280;56080;47.594;19.116;2023-03-26T13:44:21;99207;;;17.05;32.56
69027;BME280;56080;47.594;19.116;2023-03-26T13:54:15;99202;;;16.83;32.81
69027;BME280;56080;47.594;19.116;2023-03-26T14:04:32;99186;;;16.99;33.09
69027;BME280;56080;47.594;19.116;2023-03-26T14:14:16;99167;;;17.16;33.15
69027;BME280;56080;47.594;19.116;2023-03-26T14:24:27;99166;;;17.35;33.04
